Time;durP1;ratioP1;P1;durP2;ratioP2;P2;SDS_P1;SDS_P2;PMS_P1;PMS_P2;Temp;Humidity;BMP_temperature;BMP_pressure;BME280_temperature;BME280_humidity;BME280_pressure;Samples;Min_cycle;Max_cycle;Signal;HPM_P1;HPM_P2
2021/12/06 00:00:25;;;;;;;6.40;2.80;;;6.80;73.10;;;;;;5037145;28;20025;-20
2021/12/06 00:02:53;;;;;;;5.32;2.70;;;6.80;73.10;;;;;;5036774;28;20069;-21
2021/12/06 00:05:20;;;;;;;4.13;2.92;;;6.80;73.20;;;;;;5037032;28;20028;-22
2021/12/06 00:07:46;;;;;;;4.13;2.67;;;6.80;73.30;;;;;;5036688;28;20029;-22
2021/12/06 00:10:13;;;;;;;4.22;2.78;;;6.80;73.20;;;;;;5036353;28;20033;-22
2021/12/06 00:12:41;;;;;;;3.80;2.47;;;6.70;73.30;;;;;;5036416;28;20100;-22
2021/12/06 00:15:09;;;;;;;4.05;2.78;;;6.70;73.30;;;;;;5036473;28;20087;-22
2021/12/06 00:17:35;;;;;;;4.88;2.85;;;6.70;73.30;;;;;;5036429;28;20032;-20
2021/12/06 00:20:03;;;;;;;4.28;2.80;;;6.70;73.30;;;;;;5036383;28;20622;-21
2021/12/06 00:22:29;;;;;;;4.53;2.60;;;6.70;73.20;;;;;;5036371;28;20021;-21
2021/12/06 00:24:56;;;;;;;4.75;2.83;;;6.60;73.20;;;;;;5036610;28;20439;-21
2021/12/06 00:27:24;;;;;;;4.18;2.50;;;6.60;73.30;;;;;;5036677;28;20032;-20
2021/12/06 00:29:50;;;;;;;4.68;2.70;;;6.50;73.20;;;;;;5036520;28;20071;-21
2021/12/06 00:32:17;;;;;;;3.88;2.75;;;6.50;73.40;;;;;;5034801;28;20033;-21
2021/12/06 00:34:43;;;;;;;3.10;2.17;;;6.40;73.40;;;;;;5034629;28;20489;-21
2021/12/06 00:37:34;;;;;;;3.88;2.67;;;6.40;73.50;;;;;;5036315;28;20040;-23
2021/12/06 00:40:06;;;;;;;4.85;2.83;;;6.30;73.60;;;;;;5036013;28;20034;-21
2021/12/06 00:42:34;;;;;;;4.80;2.35;;;6.40;73.60;;;;;;5035790;28;20489;-22
2021/12/06 00:45:04;;;;;;;2.75;2.05;;;6.30;73.60;;;;;;5036204;28;20046;-21
2021/12/06 00:47:30;;;;;;;3.00;2.20;;;6.30;73.60;;;;;;5036179;28;20038;-23
2021/12/06 00:49:56;;;;;;;3.08;2.13;;;6.30;73.60;;;;;;5035867;28;20428;-23
2021/12/06 00:52:23;;;;;;;5.07;3.17;;;6.30;73.60;;;;;;5035699;28;20025;-21
2021/12/06 00:54:49;;;;;;;5.45;2.92;;;6.20;73.60;;;;;;5035750;28;20584;-22
2021/12/06 00:57:16;;;;;;;5.88;3.70;;;6.20;73.50;;;;;;5035705;28;20113;-23
2021/12/06 00:59:44;;;;;;;3.33;2.30;;;6.10;73.60;;;;;;5035646;28;20503;-22
2021/12/06 01:02:12;;;;;;;6.03;3.25;;;6.10;73.60;;;;;;5035596;28;20029;-21
2021/12/06 01:04:41;;;;;;;5.50;3.60;;;6.10;73.70;;;;;;5035004;28;20112;-22
2021/12/06 01:07:08;;;;;;;5.97;3.25;;;6.00;73.70;;;;;;5035384;28;20507;-23
2021/12/06 01:09:34;;;;;;;6.03;3.40;;;6.00;73.70;;;;;;5035826;28;20072;-22
2021/12/06 01:12:00;;;;;;;4.03;2.70;;;5.90;73.80;;;;;;5035728;28;20098;-22
2021/12/06 01:14:26;;;;;;;3.20;2.17;;;5.90;73.90;;;;;;5033891;28;20036;-22
2021/12/06 01:16:52;;;;;;;3.63;2.40;;;5.90;74.00;;;;;;5034081;28;20030;-21
2021/12/06 01:19:18;;;;;;;6.32;2.78;;;5.80;74.00;;;;;;5034055;28;20033;-23
2021/12/06 01:21:52;;;;;;;7.80;2.78;;;5.80;74.00;;;;;;5035769;28;20032;-22
2021/12/06 01:24:25;;;;;;;;;;;5.80;74.00;;;;;;5035675;28;20108;-20
2021/12/06 01:27:08;;;;;;;3.10;2.42;;;5.80;74.20;;;;;;5035492;28;19927;-22
2021/12/06 01:29:47;;;;;;;4.15;2.55;;;5.80;74.10;;;;;;5033992;28;20478;-22
2021/12/06 01:40:07;;;;;;;2.83;2.05;;;5.70;74.00;;;;;;5035250;28;20032;-21
2021/12/06 01:42:32;;;;;;;2.88;2.53;;;5.70;73.90;;;;;;5035037;28;20026;-20
2021/12/06 01:45:00;;;;;;;4.57;2.05;;;5.80;73.90;;;;;;5033597;28;20447;-21
2021/12/06 01:47:35;;;;;;;2.60;1.63;;;5.70;73.90;;;;;;5035117;28;20075;-21
2021/12/06 01:50:24;;;;;;;3.03;1.70;;;5.70;73.80;;;;;;5034966;28;20076;-20
2021/12/06 01:52:56;;;;;;;5.25;2.97;;;5.70;73.90;;;;;;5034434;28;20045;-20
2021/12/06 01:55:26;;;;;;;8.38;3.85;;;5.60;73.90;;;;;;5034549;28;20040;-21
2021/12/06 01:57:53;;;;;;;5.93;3.70;;;5.60;74.20;;;;;;5034586;28;20104;-20
2021/12/06 02:00:28;;;;;;;5.90;3.17;;;5.60;74.30;;;;;;5034318;28;20044;-21
2021/12/06 02:02:54;;;;;;;2.10;1.80;;;5.60;74.20;;;;;;5035356;28;20030;-20
2021/12/06 02:05:20;;;;;;;3.78;2.40;;;5.60;74.20;;;;;;5034732;28;20099;-19
2021/12/06 02:07:45;;;;;;;3.53;2.55;;;5.60;74.20;;;;;;5034603;28;20022;-21
2021/12/06 02:10:12;;;;;;;3.00;1.70;;;5.60;74.00;;;;;;5034175;28;20029;-22
2021/12/06 02:12:38;;;;;;;6.63;3.65;;;5.60;74.00;;;;;;5033032;28;20117;-21
2021/12/06 02:15:25;;;;;;;3.65;2.08;;;5.50;73.90;;;;;;5034548;28;20092;-21
2021/12/06 02:18:05;;;;;;;7.20;4.53;;;5.60;74.00;;;;;;5035025;28;20036;-21
2021/12/06 02:20:36;;;;;;;8.18;4.22;;;5.50;74.10;;;;;;5034303;28;20497;-21
2021/12/06 02:23:03;;;;;;;5.20;3.03;;;5.50;74.50;;;;;;5034406;28;20084;-21
2021/12/06 02:25:29;;;;;;;4.82;2.90;;;5.50;74.60;;;;;;5034075;28;20029;-21
2021/12/06 02:27:55;;;;;;;4.82;2.80;;;5.50;74.40;;;;;;5034285;28;20099;-21
2021/12/06 02:30:21;;;;;;;4.65;2.83;;;5.50;74.30;;;;;;5034016;28;20033;-21
2021/12/06 02:32:50;;;;;;;4.35;2.00;;;5.50;74.30;;;;;;5033551;28;20032;-21
2021/12/06 02:35:19;;;;;;;4.82;3.13;;;5.50;74.20;;;;;;5033958;28;20026;-20
2021/12/06 02:37:47;;;;;;;4.45;2.67;;;5.60;74.20;;;;;;5034036;28;20025;-20
2021/12/06 02:40:22;;;;;;;4.78;2.60;;;5.60;74.10;;;;;;5033767;28;20385;-22
2021/12/06 02:42:48;;;;;;;3.53;2.40;;;5.60;74.10;;;;;;5034473;28;20026;-21
2021/12/06 02:45:18;;;;;;;3.08;2.10;;;5.60;74.10;;;;;;5033679;28;20460;-21
2021/12/06 02:47:44;;;;;;;6.57;2.30;;;5.50;74.00;;;;;;5033585;28;20611;-21
2021/12/06 02:50:12;;;;;;;5.28;3.10;;;5.50;74.00;;;;;;5033884;28;20465;-19
2021/12/06 02:52:40;;;;;;;5.95;3.80;;;5.50;74.00;;;;;;5033730;28;20107;-20
2021/12/06 02:55:24;;;;;;;4.35;2.60;;;5.40;74.10;;;;;;5033840;28;20104;-23
2021/12/06 02:57:56;;;;;;;2.03;1.65;;;5.40;74.10;;;;;;5033506;28;20053;-20
2021/12/06 03:00:22;;;;;;;2.08;1.63;;;5.40;74.20;;;;;;5033610;28;20456;-21
2021/12/06 03:02:48;;;;;;;2.97;2.15;;;5.30;74.10;;;;;;5033761;28;20044;-20
2021/12/06 03:05:14;;;;;;;4.53;2.75;;;5.30;74.20;;;;;;5034138;28;20029;-21
2021/12/06 03:07:40;;;;;;;5.03;2.42;;;5.20;74.30;;;;;;5033487;28;20398;-21
2021/12/06 03:10:08;;;;;;;4.55;2.47;;;5.20;74.30;;;;;;5033579;28;20025;-21
2021/12/06 03:12:35;;;;;;;2.58;1.67;;;5.20;74.30;;;;;;5033263;28;20032;-23
2021/12/06 03:15:04;;;;;;;4.28;2.75;;;5.20;74.30;;;;;;5033814;28;20108;-21
2021/12/06 03:17:32;;;;;;;5.38;2.65;;;5.10;74.30;;;;;;5033240;28;20025;-22
2021/12/06 03:19:59;;;;;;;3.58;1.90;;;5.10;74.40;;;;;;5033474;28;20116;-22
2021/12/06 03:22:26;;;;;;;5.55;2.90;;;5.10;74.40;;;;;;5033304;28;20029;-22
2021/12/06 03:24:52;;;;;;;4.22;2.70;;;5.10;74.40;;;;;;5033112;28;20053;-21
2021/12/06 03:27:19;;;;;;;5.57;3.38;;;5.00;74.40;;;;;;5032441;28;20025;-22
2021/12/06 03:29:45;;;;;;;4.45;2.65;;;5.00;74.40;;;;;;5033809;28;20029;-22
2021/12/06 03:32:12;;;;;;;3.25;2.10;;;5.00;74.40;;;;;;5032961;28;20025;-23
2021/12/06 03:34:39;;;;;;;4.22;2.47;;;4.90;74.50;;;;;;5032744;28;20514;-22
2021/12/06 03:37:07;;;;;;;3.15;2.00;;;4.90;74.50;;;;;;5032985;28;20091;-21
2021/12/06 03:39:40;;;;;;;2.42;2.00;;;4.90;74.50;;;;;;5033283;28;20095;-21
2021/12/06 03:42:08;;;;;;;3.37;2.37;;;4.80;74.50;;;;;;5033094;28;20034;-21
2021/12/06 03:44:36;;;;;;;3.63;2.70;;;4.80;74.50;;;;;;5032744;28;20030;-21
2021/12/06 03:47:29;;;;;;;2.45;1.58;;;4.80;74.60;;;;;;5033324;28;20029;-22
2021/12/06 03:49:56;;;;;;;1.90;1.70;;;4.70;74.70;;;;;;5031954;28;20117;-22
2021/12/06 03:52:23;;;;;;;6.20;3.47;;;4.70;74.60;;;;;;5032575;28;20100;-21
2021/12/06 03:54:50;;;;;;;2.58;1.80;;;4.70;74.60;;;;;;5032891;28;20041;-22
2021/12/06 03:57:17;;;;;;;3.30;2.03;;;4.60;74.60;;;;;;5032821;28;20037;-21
2021/12/06 03:59:44;;;;;;;1.60;1.40;;;4.60;74.60;;;;;;5033153;28;20022;-22
2021/12/06 04:02:11;;;;;;;4.05;2.10;;;4.60;74.60;;;;;;5033088;28;20108;-21
2021/12/06 04:04:38;;;;;;;2.88;1.90;;;4.60;74.50;;;;;;5032797;28;20362;-21
2021/12/06 04:07:05;;;;;;;3.65;2.17;;;4.50;74.60;;;;;;5033366;28;20473;-21
2021/12/06 04:09:32;;;;;;;4.88;3.10;;;4.50;74.50;;;;;;5032909;28;20034;-21
2021/12/06 04:11:58;;;;;;;1.92;1.70;;;4.40;74.60;;;;;;5032830;28;20109;-21
2021/12/06 04:14:24;;;;;;;2.40;1.98;;;4.40;74.70;;;;;;5032506;28;20412;-21
2021/12/06 04:16:50;;;;;;;3.58;2.03;;;4.40;74.70;;;;;;5032664;28;20112;-21
2021/12/06 04:19:16;;;;;;;3.00;2.45;;;4.30;74.70;;;;;;5031447;28;20021;-22
2021/12/06 04:21:45;;;;;;;2.70;2.03;;;4.20;74.80;;;;;;5032556;28;20026;-23
2021/12/06 04:24:12;;;;;;;2.70;1.98;;;4.20;74.80;;;;;;5032638;28;20029;-23
2021/12/06 04:26:39;;;;;;;3.00;2.60;;;4.20;74.80;;;;;;5032914;28;20080;-22
2021/12/06 04:29:06;;;;;;;3.67;2.40;;;4.10;74.80;;;;;;5033387;28;20053;-22
2021/12/06 04:31:37;;;;;;;3.88;2.20;;;4.10;74.80;;;;;;5032483;28;20059;-22
2021/12/06 04:34:03;;;;;;;2.70;2.17;;;4.10;74.80;;;;;;5032211;28;20083;-21
2021/12/06 04:36:29;;;;;;;3.38;2.28;;;4.00;74.80;;;;;;5032374;28;20115;-21
2021/12/06 04:38:56;;;;;;;1.58;1.38;;;4.00;75.00;;;;;;5033125;28;20506;-21
2021/12/06 04:41:23;;;;;;;2.08;1.45;;;3.90;74.90;;;;;;5035941;28;20025;-21
2021/12/06 04:43:49;;;;;;;3.60;2.30;;;3.90;74.90;;;;;;5035976;28;20033;-21
2021/12/06 04:46:15;;;;;;;3.33;1.88;;;3.90;74.90;;;;;;5035963;28;20026;-23
2021/12/06 04:48:42;;;;;;;2.40;1.70;;;3.80;75.00;;;;;;5035854;28;20040;-22
2021/12/06 04:51:08;;;;;;;1.83;1.58;;;3.80;75.00;;;;;;5036079;28;20026;-22
2021/12/06 04:53:38;;;;;;;2.33;1.75;;;3.70;75.00;;;;;;5035634;28;20064;-22
2021/12/06 04:56:21;;;;;;;1.55;1.30;;;3.70;75.10;;;;;;5035782;28;20034;-20
2021/12/06 04:58:56;;;;;;;4.78;2.22;;;3.60;75.10;;;;;;5035738;28;20359;-21
2021/12/06 05:01:28;;;;;;;2.50;1.67;;;3.70;75.10;;;;;;5035925;28;20033;-21
2021/12/06 05:03:58;;;;;;;3.88;2.90;;;3.60;75.20;;;;;;5035634;28;20112;-21
2021/12/06 05:06:29;;;;;;;3.40;1.85;;;3.60;75.20;;;;;;5035344;28;20033;-21
2021/12/06 05:09:00;;;;;;;1.60;1.33;;;3.60;75.20;;;;;;5035437;28;20026;-23
2021/12/06 05:11:29;;;;;;;1.48;1.05;;;3.60;75.10;;;;;;5035523;28;20025;-22
2021/12/06 05:13:57;;;;;;;1.65;1.02;;;3.60;75.10;;;;;;5035417;28;20014;-22
2021/12/06 05:16:24;;;;;;;1.42;0.95;;;3.50;75.10;;;;;;5035286;28;20037;-21
2021/12/06 05:18:50;;;;;;;2.38;1.65;;;3.50;75.10;;;;;;5034144;28;20057;-21
2021/12/06 05:21:17;;;;;;;3.60;1.50;;;3.50;75.10;;;;;;5034075;28;20056;-21
2021/12/06 05:23:43;;;;;;;1.83;1.38;;;3.40;75.10;;;;;;5035499;28;20025;-21
2021/12/06 05:26:09;;;;;;;1.35;1.25;;;3.40;75.10;;;;;;5033951;28;20025;-21
2021/12/06 05:28:42;;;;;;;2.42;1.30;;;3.30;75.10;;;;;;5035269;28;20032;-21
2021/12/06 05:31:20;;;;;;;3.13;2.30;;;3.30;75.10;;;;;;5035382;28;20056;-21
2021/12/06 05:33:52;;;;;;;2.33;1.70;;;3.30;75.10;;;;;;5035065;28;20061;-23
2021/12/06 05:36:19;;;;;;;1.63;1.40;;;3.30;75.20;;;;;;5035245;28;20033;-22
2021/12/06 05:38:45;;;;;;;2.35;1.40;;;3.20;75.20;;;;;;5034818;28;20393;-21
2021/12/06 05:41:11;;;;;;;1.20;0.88;;;3.20;75.20;;;;;;5034932;28;20523;-24
2021/12/06 05:43:37;;;;;;;1.95;1.75;;;3.10;75.20;;;;;;5034958;28;20029;-21
2021/12/06 05:46:04;;;;;;;3.08;1.75;;;3.10;75.30;;;;;;5035167;28;20029;-21
2021/12/06 05:48:30;;;;;;;2.30;1.85;;;3.00;75.30;;;;;;5034643;28;20489;-22
2021/12/06 05:50:56;;;;;;;2.97;1.58;;;2.90;75.30;;;;;;5033998;28;20063;-21
2021/12/06 05:53:22;;;;;;;1.60;1.10;;;2.90;75.40;;;;;;5034534;28;20033;-21
2021/12/06 05:55:49;;;;;;;2.67;1.70;;;2.90;75.40;;;;;;5035006;28;20017;-23
2021/12/06 05:58:18;;;;;;;2.40;1.55;;;2.80;75.50;;;;;;5035515;28;20033;-20
2021/12/06 06:00:45;;;;;;;1.60;1.30;;;2.80;75.50;;;;;;5034555;28;20017;-21
2021/12/06 06:03:11;;;;;;;3.58;1.70;;;2.80;75.60;;;;;;5034531;28;20034;-21
2021/12/06 06:05:38;;;;;;;3.55;2.33;;;2.70;75.60;;;;;;5035048;28;20382;-21
2021/12/06 06:08:06;;;;;;;3.17;1.95;;;2.80;75.60;;;;;;5034643;28;20026;-21
2021/12/06 06:10:33;;;;;;;2.35;2.10;;;2.80;75.50;;;;;;5034142;28;20079;-21
2021/12/06 06:13:00;;;;;;;4.13;2.08;;;2.80;75.50;;;;;;5034195;28;20029;-21
2021/12/06 06:15:29;;;;;;;3.85;2.60;;;2.70;75.50;;;;;;5034527;28;20103;-20
2021/12/06 06:17:56;;;;;;;3.40;2.13;;;2.80;75.40;;;;;;5034219;28;20032;-21
2021/12/06 06:20:31;;;;;;;2.33;1.80;;;2.70;75.50;;;;;;5034287;28;20029;-22
2021/12/06 06:22:57;;;;;;;1.73;1.40;;;2.70;75.40;;;;;;5034546;28;20033;-22
2021/12/06 06:25:24;;;;;;;2.10;1.90;;;2.60;75.30;;;;;;5034043;28;20082;-21
2021/12/06 06:27:50;;;;;;;4.32;2.70;;;2.60;75.30;;;;;;5033965;28;20393;-23
2021/12/06 06:30:16;;;;;;;1.55;1.23;;;2.50;75.40;;;;;;5033834;28;20033;-21
2021/12/06 06:32:44;;;;;;;2.08;1.77;;;2.50;75.40;;;;;;5034317;28;20025;-23
2021/12/06 06:35:12;;;;;;;1.98;1.40;;;2.40;75.40;;;;;;5034276;28;20025;-21
2021/12/06 06:37:38;;;;;;;2.58;2.28;;;2.40;75.50;;;;;;5033729;28;20458;-22
2021/12/06 06:40:05;;;;;;;3.15;2.13;;;2.30;75.50;;;;;;5034122;28;20025;-21
2021/12/06 06:42:33;;;;;;;3.83;2.47;;;2.30;75.60;;;;;;5033485;28;20099;-21
2021/12/06 06:44:59;;;;;;;6.25;3.20;;;2.20;75.80;;;;;;5034114;28;20045;-23
2021/12/06 06:47:25;;;;;;;4.38;3.00;;;2.20;75.80;;;;;;5033878;28;20032;-22
2021/12/06 06:49:51;;;;;;;4.60;3.13;;;2.20;75.90;;;;;;5033654;28;20026;-21
2021/12/06 06:52:17;;;;;;;2.88;2.25;;;2.20;75.90;;;;;;5033434;28;20036;-22
2021/12/06 06:54:44;;;;;;;3.38;2.35;;;2.20;75.90;;;;;;5033309;28;20057;-22
2021/12/06 06:57:10;;;;;;;3.13;2.30;;;2.20;75.80;;;;;;5034204;28;20022;-22
2021/12/06 06:59:36;;;;;;;7.57;3.67;;;2.30;75.80;;;;;;5033706;28;20032;-20
2021/12/06 07:02:04;;;;;;;8.93;4.82;;;2.30;75.90;;;;;;5033646;28;20022;-21
2021/12/06 07:04:30;;;;;;;8.10;4.40;;;2.30;75.90;;;;;;5033522;28;20103;-22
2021/12/06 07:06:56;;;;;;;3.88;2.20;;;2.20;76.20;;;;;;5033308;28;20068;-21
2021/12/06 07:09:23;;;;;;;3.15;1.73;;;2.30;76.00;;;;;;5033531;28;20029;-21
2021/12/06 07:11:51;;;;;;;6.45;3.05;;;2.30;75.90;;;;;;5033268;28;20508;-23
2021/12/06 07:14:17;;;;;;;2.08;1.80;;;2.30;75.90;;;;;;5033600;28;20487;-22
2021/12/06 07:16:47;;;;;;;3.53;2.17;;;2.40;75.80;;;;;;5033835;28;20032;-21
2021/12/06 07:19:14;;;;;;;1.58;1.35;;;2.40;75.90;;;;;;5033255;28;20025;-21
2021/12/06 07:21:40;;;;;;;1.50;1.40;;;2.40;75.90;;;;;;5033752;28;20022;-22
2021/12/06 07:24:06;;;;;;;2.83;1.65;;;2.40;76.00;;;;;;5033084;28;20541;-21
2021/12/06 07:26:32;;;;;;;4.93;3.30;;;2.50;75.90;;;;;;5032882;28;20025;-21
2021/12/06 07:28:59;;;;;;;5.88;3.08;;;2.60;75.80;;;;;;5033540;28;20095;-22
2021/12/06 07:31:25;;;;;;;5.88;3.55;;;2.70;75.60;;;;;;5033118;28;20037;-21
2021/12/06 07:33:52;;;;;;;5.88;3.45;;;2.70;75.70;;;;;;5033003;28;20056;-19
2021/12/06 07:36:20;;;;;;;5.82;3.72;;;2.80;76.00;;;;;;5032923;28;20071;-20
2021/12/06 07:38:46;;;;;;;5.00;2.28;;;2.90;75.80;;;;;;5032949;28;20444;-21
2021/12/06 07:41:16;;;;;;;7.78;4.53;;;3.00;75.70;;;;;;5031777;28;20029;-21
2021/12/06 07:43:42;;;;;;;11.85;6.45;;;3.00;75.90;;;;;;5032977;28;20121;-21
2021/12/06 07:46:09;;;;;;;5.53;3.05;;;3.10;76.30;;;;;;5033032;28;20017;-21
2021/12/06 07:48:36;;;;;;;6.38;3.90;;;3.20;76.10;;;;;;5032743;28;20112;-22
2021/12/06 07:51:05;;;;;;;4.70;2.80;;;3.20;75.60;;;;;;5033155;28;20105;-21
2021/12/06 07:53:32;;;;;;;6.80;3.10;;;3.30;75.30;;;;;;5033122;28;20037;-22
2021/12/06 07:55:59;;;;;;;6.22;2.85;;;3.40;75.30;;;;;;5032838;28;20143;-22
2021/12/06 07:58:26;;;;;;;6.05;3.40;;;3.50;75.00;;;;;;5032626;28;20396;-22
2021/12/06 08:00:55;;;;;;;8.85;4.93;;;3.60;75.40;;;;;;5032804;28;20091;-20
2021/12/06 08:03:23;;;;;;;7.85;3.75;;;3.60;75.50;;;;;;5032763;28;20030;-22
2021/12/06 08:05:51;;;;;;;6.80;3.65;;;3.70;75.30;;;;;;5032802;28;20041;-21
2021/12/06 08:08:26;;;;;;;10.90;5.70;;;3.80;74.80;;;;;;5032772;28;20068;-21
2021/12/06 08:10:58;;;;;;;6.18;3.42;;;3.90;74.90;;;;;;5033642;28;20029;-22
2021/12/06 08:13:30;;;;;;;8.50;4.38;;;4.00;74.60;;;;;;5032900;28;20034;-21
2021/12/06 08:16:01;;;;;;;15.52;6.85;;;4.10;74.70;;;;;;5036740;28;20092;-21
2021/12/06 08:18:27;;;;;;;11.65;6.00;;;4.10;74.30;;;;;;5036663;28;20021;-23
2021/12/06 08:20:53;;;;;;;9.95;4.65;;;4.20;74.10;;;;;;5036731;28;20037;-20
2021/12/06 08:23:19;;;;;;;8.30;3.83;;;4.30;74.20;;;;;;5036290;28;20474;-21
2021/12/06 08:25:48;;;;;;;4.38;2.80;;;4.40;74.20;;;;;;5036340;28;20032;-23
2021/12/06 08:28:16;;;;;;;10.75;5.38;;;4.50;74.20;;;;;;5036237;28;20105;-22
2021/12/06 08:30:44;;;;;;;7.15;4.03;;;4.50;73.90;;;;;;5036223;28;20547;-21
2021/12/06 08:33:12;;;;;;;7.63;4.15;;;4.60;74.10;;;;;;5036146;28;20049;-21
2021/12/06 08:35:42;;;;;;;6.65;3.95;;;4.80;74.30;;;;;;5036523;28;20043;-22
2021/12/06 08:38:10;;;;;;;9.85;5.15;;;4.90;74.50;;;;;;5036022;28;20021;-21
2021/12/06 08:40:37;;;;;;;7.68;4.05;;;5.00;74.10;;;;;;5036331;28;20033;-21
2021/12/06 08:43:04;;;;;;;7.88;4.32;;;5.20;74.80;;;;;;5035995;28;20448;-21
2021/12/06 08:45:31;;;;;;;8.57;5.00;;;5.40;75.30;;;;;;5036007;28;20032;-21
2021/12/06 08:47:57;;;;;;;11.85;6.85;;;5.50;75.60;;;;;;5036344;28;20029;-21
2021/12/06 08:50:25;;;;;;;6.85;4.43;;;5.70;73.60;;;;;;5035982;28;20030;-21
2021/12/06 08:52:53;;;;;;;11.00;5.95;;;5.90;75.30;;;;;;5036177;28;20071;-21
2021/12/06 08:55:20;;;;;;;9.30;4.93;;;6.10;74.90;;;;;;5036072;28;20029;-21
2021/12/06 08:57:46;;;;;;;10.63;5.45;;;6.20;75.30;;;;;;5036066;28;20090;-20
2021/12/06 09:00:19;;;;;;;10.35;6.20;;;6.30;75.60;;;;;;5035794;28;20044;-22
2021/12/06 09:02:46;;;;;;;9.57;5.60;;;6.50;75.70;;;;;;5035671;28;20026;-21
2021/12/06 09:05:13;;;;;;;7.15;4.55;;;6.70;73.70;;;;;;5035825;28;20382;-20
2021/12/06 09:07:39;;;;;;;7.07;4.15;;;6.90;74.40;;;;;;5034251;28;20026;-21
2021/12/06 09:10:10;;;;;;;7.93;4.43;;;7.00;75.10;;;;;;5035556;28;20026;-22
2021/12/06 09:12:38;;;;;;;6.35;3.80;;;7.20;73.60;;;;;;5035458;28;20053;-22
2021/12/06 09:15:10;;;;;;;6.28;3.90;;;7.40;74.70;;;;;;5035432;28;20029;-22
2021/12/06 09:17:36;;;;;;;5.65;4.28;;;7.60;74.70;;;;;;5035427;28;20037;-22
2021/12/06 09:20:06;;;;;;;9.05;4.55;;;7.70;73.70;;;;;;5035546;28;20033;-21
2021/12/06 09:22:32;;;;;;;5.57;3.35;;;7.90;70.00;;;;;;5035119;28;20029;-21
2021/12/06 09:24:58;;;;;;;5.07;3.05;;;8.00;70.80;;;;;;5034958;28;20392;-22
2021/12/06 09:27:24;;;;;;;8.45;3.80;;;8.10;73.10;;;;;;5034686;28;20477;-21
2021/12/06 09:29:50;;;;;;;5.88;3.10;;;8.30;71.80;;;;;;5035489;28;20108;-21
2021/12/06 09:32:17;;;;;;;5.70;3.38;;;8.40;72.90;;;;;;5034921;28;20450;-23
2021/12/06 09:34:46;;;;;;;5.40;3.28;;;8.50;72.70;;;;;;5034762;28;20092;-22
2021/12/06 09:37:14;;;;;;;5.55;3.08;;;8.70;72.00;;;;;;5035059;28;20065;-22
2021/12/06 09:39:41;;;;;;;5.63;3.40;;;8.80;72.60;;;;;;5035243;28;20080;-22
2021/12/06 09:42:08;;;;;;;7.15;3.70;;;8.90;72.50;;;;;;5035000;28;20120;-21
2021/12/06 09:44:35;;;;;;;5.25;3.15;;;9.10;72.10;;;;;;5034712;28;20084;-22
2021/12/06 09:47:03;;;;;;;6.10;3.25;;;9.30;72.10;;;;;;5035451;28;20017;-22
2021/12/06 09:49:29;;;;;;;5.05;2.80;;;9.40;68.20;;;;;;5035137;28;20025;-21
2021/12/06 09:51:59;;;;;;;4.18;3.00;;;9.60;71.00;;;;;;5034740;28;20444;-22
2021/12/06 09:54:30;;;;;;;6.47;3.47;;;9.70;70.50;;;;;;5034282;28;20037;-22
2021/12/06 09:56:59;;;;;;;4.85;2.95;;;9.90;70.20;;;;;;5035010;28;20053;-22
2021/12/06 09:59:28;;;;;;;3.65;2.67;;;10.10;67.70;;;;;;5034913;28;20087;-21
2021/12/06 10:02:02;;;;;;;3.40;2.60;;;10.30;67.70;;;;;;5034555;28;20028;-22
2021/12/06 10:04:32;;;;;;;4.32;2.70;;;10.40;67.30;;;;;;5034673;28;20036;-21
2021/12/06 10:06:59;;;;;;;3.30;2.20;;;10.60;67.00;;;;;;5034774;28;20018;-22
2021/12/06 10:09:26;;;;;;;3.70;2.40;;;10.70;66.40;;;;;;5034510;28;20036;-22
2021/12/06 10:11:55;;;;;;;2.30;1.88;;;10.90;66.30;;;;;;5034379;28;20107;-22
2021/12/06 10:14:21;;;;;;;3.63;2.17;;;11.10;66.10;;;;;;5034419;28;20076;-22
2021/12/06 10:16:48;;;;;;;2.78;1.92;;;11.20;66.00;;;;;;5034487;28;20381;-22
2021/12/06 10:19:15;;;;;;;3.13;1.80;;;11.40;65.40;;;;;;5034476;28;20550;-22
2021/12/06 10:21:42;;;;;;;2.20;1.80;;;11.50;64.40;;;;;;5034175;28;20108;-22
2021/12/06 10:24:17;;;;;;;1.85;1.60;;;11.60;64.30;;;;;;5034052;28;20025;-22
2021/12/06 10:26:43;;;;;;;2.75;1.58;;;11.80;63.30;;;;;;5034104;28;20107;-22
2021/12/06 10:29:22;;;;;;;3.58;1.63;;;11.90;62.90;;;;;;5034144;28;20057;-22
2021/12/06 10:31:55;;;;;;;2.42;2.00;;;12.10;62.00;;;;;;5034028;28;20363;-22
2021/12/06 10:34:27;;;;;;;2.72;1.80;;;12.20;60.60;;;;;;5033590;28;20077;-22
2021/12/06 10:36:55;;;;;;;4.47;2.08;;;12.40;60.70;;;;;;5032362;28;20448;-22
2021/12/06 10:39:22;;;;;;;3.65;2.53;;;12.50;59.30;;;;;;5034205;28;20026;-22
2021/12/06 10:41:52;;;;;;;2.55;1.42;;;12.60;56.60;;;;;;5033764;28;20034;-22
2021/12/06 10:44:18;;;;;;;3.53;1.80;;;12.70;59.30;;;;;;5033883;28;20144;-22
2021/12/06 10:46:53;;;;;;;4.70;2.63;;;12.80;58.60;;;;;;5033756;28;20025;-22
2021/12/06 10:49:23;;;;;;;3.28;2.10;;;12.90;56.10;;;;;;5034058;28;20079;-22
2021/12/06 10:51:50;;;;;;;2.72;2.00;;;12.90;57.50;;;;;;5032421;28;20026;-21
2021/12/06 10:54:27;;;;;;;3.42;2.08;;;13.00;56.80;;;;;;5033641;28;20037;-22
2021/12/06 10:56:58;;;;;;;5.43;2.80;;;13.10;56.10;;;;;;5033876;28;20032;-22
2021/12/06 10:59:28;;;;;;;4.22;2.40;;;13.20;56.40;;;;;;5033575;28;20029;-22
2021/12/06 11:02:02;;;;;;;2.97;2.13;;;13.20;54.10;;;;;;5033781;28;20104;-21
2021/12/06 11:04:29;;;;;;;3.92;2.08;;;13.30;55.00;;;;;;5033642;28;20108;-22
2021/12/06 11:07:05;;;;;;;3.15;1.92;;;13.30;55.50;;;;;;5033438;28;20040;-21
2021/12/06 11:09:33;;;;;;;2.35;1.80;;;13.40;55.70;;;;;;5033623;28;20032;-23
2021/12/06 11:12:02;;;;;;;1.65;1.55;;;13.50;55.60;;;;;;5033665;28;20053;-22
2021/12/06 11:14:42;;;;;;;2.78;1.73;;;13.70;54.70;;;;;;5033059;28;20520;-22
2021/12/06 11:17:19;;;;;;;1.75;1.38;;;13.70;53.50;;;;;;5033590;28;20025;-23
2021/12/06 11:19:49;;;;;;;1.90;1.70;;;13.90;54.50;;;;;;5033279;28;20071;-22
2021/12/06 11:22:21;;;;;;;2.92;1.58;;;14.00;54.20;;;;;;5033359;28;20040;-22
2021/12/06 11:24:51;;;;;;;2.17;1.70;;;14.00;51.70;;;;;;5033195;28;20025;-23
2021/12/06 11:27:28;;;;;;;3.17;1.63;;;14.20;53.50;;;;;;5033465;28;20036;-22
2021/12/06 11:30:03;;;;;;;1.42;1.23;;;14.30;53.30;;;;;;5033786;28;20021;-22
2021/12/06 11:32:45;;;;;;;3.47;1.90;;;14.40;52.40;;;;;;5033001;28;20035;-22
2021/12/06 11:35:19;;;;;;;2.50;1.95;;;14.50;52.40;;;;;;5033486;28;20044;-22
2021/12/06 11:37:51;;;;;;;2.70;1.63;;;14.60;52.90;;;;;;5033110;28;20460;-23
2021/12/06 11:40:30;;;;;;;3.90;2.00;;;14.70;52.80;;;;;;5032843;28;20117;-22
2021/12/06 11:43:05;;;;;;;2.95;1.80;;;14.90;52.00;;;;;;5033015;28;20381;-22
2021/12/06 11:45:33;;;;;;;2.28;1.48;;;15.00;51.60;;;;;;5033376;28;20030;-22
2021/12/06 11:48:11;;;;;;;1.15;1.05;;;15.10;51.70;;;;;;5032962;28;20036;-23
2021/12/06 11:50:44;;;;;;;2.95;1.55;;;15.30;51.50;;;;;;5037063;28;20047;-22
2021/12/06 11:53:10;;;;;;;3.35;1.50;;;15.40;50.20;;;;;;5036827;28;20052;-23
2021/12/06 11:55:47;;;;;;;2.50;1.70;;;15.40;49.80;;;;;;5037262;28;20038;-23
2021/12/06 11:58:21;;;;;;;3.63;2.10;;;15.50;50.00;;;;;;5037286;28;20473;-22
2021/12/06 12:01:04;;;;;;;3.35;1.67;;;15.60;49.60;;;;;;5036840;28;20103;-22
2021/12/06 12:03:33;;;;;;;3.50;1.60;;;15.70;50.20;;;;;;5037550;28;20040;-22
2021/12/06 12:05:59;;;;;;;2.55;1.83;;;15.90;50.20;;;;;;5036748;28;20029;-22
2021/12/06 12:08:30;;;;;;;3.03;1.60;;;16.00;49.80;;;;;;5036349;28;20516;-24
2021/12/06 12:10:56;;;;;;;2.35;2.10;;;16.10;48.60;;;;;;5037008;28;20029;-24
2021/12/06 12:13:36;;;;;;;4.20;2.00;;;16.30;49.20;;;;;;5037100;28;20527;-23
2021/12/06 12:16:09;;;;;;;3.20;2.08;;;16.50;48.80;;;;;;5036546;28;20040;-23
2021/12/06 12:18:38;;;;;;;4.18;2.10;;;16.60;48.80;;;;;;5036365;28;20416;-23
2021/12/06 12:21:05;;;;;;;4.53;1.67;;;16.70;48.50;;;;;;5036453;28;20022;-24
2021/12/06 12:23:33;;;;;;;2.00;1.52;;;16.80;48.40;;;;;;5036366;28;20033;-23
2021/12/06 12:26:05;;;;;;;2.45;1.42;;;16.80;48.20;;;;;;5036379;28;20030;-23
2021/12/06 12:28:48;;;;;;;1.45;1.00;;;16.80;48.30;;;;;;5036153;28;20505;-23
2021/12/06 12:31:14;;;;;;;1.02;0.90;;;16.80;48.50;;;;;;5036612;28;20125;-23
2021/12/06 12:33:41;;;;;;;2.58;1.55;;;16.70;48.90;;;;;;5036112;28;20088;-23
2021/12/06 12:36:12;;;;;;;2.63;1.40;;;16.70;48.40;;;;;;5036503;28;20053;-22
2021/12/06 12:38:41;;;;;;;2.95;1.40;;;16.60;48.70;;;;;;5036428;28;20044;-22
2021/12/06 12:41:12;;;;;;;1.65;1.10;;;16.50;48.70;;;;;;5036327;28;20034;-24
2021/12/06 12:43:50;;;;;;;0.75;0.70;;;16.40;48.60;;;;;;5036365;28;20030;-23
2021/12/06 12:46:18;;;;;;;1.70;1.50;;;16.40;48.70;;;;;;5036193;28;20096;-24
2021/12/06 12:48:57;;;;;;;3.33;1.55;;;16.40;48.90;;;;;;5035809;28;20509;-24
2021/12/06 12:51:25;;;;;;;0.73;0.70;;;16.50;48.50;;;;;;5036257;28;20030;-24
2021/12/06 12:54:04;;;;;;;2.30;1.67;;;16.50;48.50;;;;;;5035894;28;20030;-23
2021/12/06 12:56:41;;;;;;;1.58;1.30;;;16.60;48.30;;;;;;5035679;28;20025;-23
2021/12/06 12:59:17;;;;;;;2.83;1.70;;;16.60;47.70;;;;;;5036336;28;20040;-24
2021/12/06 13:01:46;;;;;;;1.45;1.30;;;16.70;47.40;;;;;;5035502;28;20030;-23
2021/12/06 13:04:13;;;;;;;2.40;1.63;;;16.70;47.00;;;;;;5035750;28;20026;-22
2021/12/06 13:06:40;;;;;;;2.42;1.70;;;16.70;46.80;;;;;;5035643;28;20029;-24
2021/12/06 13:09:18;;;;;;;1.70;1.42;;;16.80;45.40;;;;;;5035518;28;20488;-24
2021/12/06 13:11:46;;;;;;;4.40;2.20;;;16.80;45.90;;;;;;5036126;28;20493;-25